Time;durP1;ratioP1;P1;durP2;ratioP2;P2;SDS_P1;SDS_P2;PMS_P1;PMS_P2;Temp;Humidity;BMP_temperature;BMP_pressure;BME280_temperature;BME280_humidity;BME280_pressure;Samples;Min_cycle;Max_cycle;Signal;HPM_P1;HPM_P2
2024/04/04 00:01:24;;;;;;;;;;;;;;;;;;4450943;32;19936;-66
2024/04/04 00:03:50;;;;;;;;;;;;;;;;;;4453028;32;20261;-66
2024/04/04 00:06:15;;;;;;;;;;;;;;;;;;4442614;32;20326;-66
2024/04/04 00:08:40;;;;;;;;;;;;;;;;;;4439276;32;19944;-67
2024/04/04 00:11:05;;;;;;;;;;;;;;;;;;4446635;32;19974;-66
2024/04/04 00:13:30;;;;;;;;;;;;;;;;;;4438239;32;19951;-66
2024/04/04 00:15:55;;;;;;;;;;;;;;;;;;4446595;32;19932;-66
2024/04/04 00:18:20;;;;;;;;;;;;;;;;;;4452411;32;19995;-67
2024/04/04 00:20:45;;;;;;;;;;;;;;;;;;4446598;32;19936;-66
2024/04/04 00:23:11;;;;;;;;;;;;;;;;;;4453506;32;19997;-66
2024/04/04 00:25:36;;;;;;;;;;;;;;;;;;4444189;32;20363;-65
2024/04/04 00:28:01;;;;;;;;;;;;;;;;;;4454418;32;20007;-66
2024/04/04 00:30:26;;;;;;;;;;;;;;;;;;4438088;32;20296;-65
2024/04/04 00:32:53;;;;;;;;;;;;;;;;;;4436977;32;19952;-66
2024/04/04 00:35:18;;;;;;;;;;;;;;;;;;4453067;32;19945;-67
2024/04/04 00:37:44;;;;;;;;;;;;;;;;;;4445246;32;19947;-67
2024/04/04 00:40:10;;;;;;;;;;;;;;;;;;4439387;32;20298;-67
2024/04/04 00:42:35;;;;;;;;;;;;;;;;;;4438443;32;19963;-66
2024/04/04 00:45:00;;;;;;;;;;;;;;;;;;4436268;32;19932;-66
2024/04/04 00:47:25;;;;;;;;;;;;;;;;;;4438307;32;19967;-66
2024/04/04 00:49:50;;;;;;;;;;;;;;;;;;4445391;32;19933;-65
2024/04/04 00:52:15;;;;;;;;;;;;;;;;;;4440544;32;19937;-67
2024/04/04 00:54:40;;;;;;;;;;;;;;;;;;4435504;32;20038;-66
2024/04/04 00:57:05;;;;;;;;;;;;;;;;;;4435056;32;19936;-66
2024/04/04 00:59:30;;;;;;;;;;;;;;;;;;4436194;32;19969;-65
2024/04/04 01:01:56;;;;;;;;;;;;;;;;;;4445081;32;20000;-66
2024/04/04 01:04:21;;;;;;;;;;;;;;;;;;4453536;32;19970;-67
2024/04/04 01:06:46;;;;;;;;;;;;;;;;;;4444468;32;19936;-67
2024/04/04 01:09:11;;;;;;;;;;;;;;;;;;4436594;32;19970;-66
2024/04/04 01:11:36;;;;;;;;;;;;;;;;;;4438529;32;20336;-67
2024/04/04 01:14:01;;;;;;;;;;;;;;;;;;4441519;32;19936;-67
2024/04/04 01:16:26;;;;;;;;;;;;;;;;;;4442371;32;19947;-67
2024/04/04 01:18:51;;;;;;;;;;;;;;;;;;4453895;32;19940;-68
2024/04/04 01:21:18;;;;;;;;;;;;;;;;;;4452910;32;19969;-67
2024/04/04 01:23:43;;;;;;;;;;;;;;;;;;4451847;32;19959;-67
2024/04/04 01:26:08;;;;;;;;;;;;;;;;;;4452803;32;19948;-67
2024/04/04 01:28:33;;;;;;;;;;;;;;;;;;4439715;32;19966;-67
2024/04/04 01:30:58;;;;;;;;;;;;;;;;;;4435375;32;19988;-65
2024/04/04 01:33:23;;;;;;;;;;;;;;;;;;4436811;32;20097;-66
2024/04/04 01:35:48;;;;;;;;;;;;;;;;;;4436247;32;19947;-65
2024/04/04 01:38:13;;;;;;;;;;;;;;;;;;4445681;32;19960;-65
2024/04/04 01:40:39;;;;;;;;;;;;;;;;;;4446865;32;20370;-65
2024/04/04 01:43:04;;;;;;;;;;;;;;;;;;4440897;32;19984;-65
2024/04/04 01:45:29;;;;;;;;;;;;;;;;;;4451758;32;19969;-65
2024/04/04 01:47:54;;;;;;;;;;;;;;;;;;4442115;32;19989;-66
2024/04/04 01:50:19;;;;;;;;;;;;;;;;;;4436039;32;19933;-66
2024/04/04 01:52:44;;;;;;;;;;;;;;;;;;4445034;32;20007;-66
2024/04/04 01:55:09;;;;;;;;;;;;;;;;;;4451345;32;20285;-66
2024/04/04 01:57:34;;;;;;;;;;;;;;;;;;4448739;32;19940;-67
2024/04/04 01:59:59;;;;;;;;;;;;;;;;;;4451564;32;19933;-66
2024/04/04 02:02:25;;;;;;;;;;;;;;;;;;4440006;32;19997;-65
2024/04/04 02:04:50;;;;;;;;;;;;;;;;;;4435400;32;19937;-66
2024/04/04 02:07:15;;;;;;;;;;;;;;;;;;4438070;32;19950;-66
2024/04/04 02:09:40;;;;;;;;;;;;;;;;;;4435676;32;19954;-66
2024/04/04 02:12:05;;;;;;;;;;;;;;;;;;4438727;32;19975;-65
2024/04/04 02:14:31;;;;;;;;;;;;;;;;;;4449671;32;20348;-65
2024/04/04 02:16:56;;;;;;;;;;;;;;;;;;4452153;32;19976;-65
2024/04/04 02:19:21;;;;;;;;;;;;;;;;;;4446831;32;19970;-65
2024/04/04 02:21:47;;;;;;;;;;;;;;;;;;4444132;32;19936;-67
2024/04/04 02:24:12;;;;;;;;;;;;;;;;;;4436505;32;19937;-68
2024/04/04 02:26:37;;;;;;;;;;;;;;;;;;4435765;32;20282;-67
2024/04/04 02:29:02;;;;;;;;;;;;;;;;;;4436962;32;19940;-67
2024/04/04 02:31:27;;;;;;;;;;;;;;;;;;4435578;32;19951;-67
2024/04/04 02:33:53;;;;;;;;;;;;;;;;;;4450421;32;19977;-67
2024/04/04 02:36:18;;;;;;;;;;;;;;;;;;4450835;32;19989;-68
2024/04/04 02:38:43;;;;;;;;;;;;;;;;;;4449068;32;19932;-66
2024/04/04 02:41:08;;;;;;;;;;;;;;;;;;4450451;32;19936;-67
2024/04/04 02:43:34;;;;;;;;;;;;;;;;;;4437081;32;19951;-66
2024/04/04 02:45:59;;;;;;;;;;;;;;;;;;4435143;32;19936;-67
2024/04/04 02:48:24;;;;;;;;;;;;;;;;;;4436637;32;19932;-68
2024/04/04 02:50:49;;;;;;;;;;;;;;;;;;4437126;32;19941;-68
2024/04/04 02:53:14;;;;;;;;;;;;;;;;;;4435362;32;20004;-68
2024/04/04 02:55:39;;;;;;;;;;;;;;;;;;4434787;32;19953;-68
2024/04/04 02:58:04;;;;;;;;;;;;;;;;;;4436522;32;20277;-68
2024/04/04 03:00:29;;;;;;;;;;;;;;;;;;4436043;32;19970;-68
2024/04/04 03:02:54;;;;;;;;;;;;;;;;;;4445767;32;19959;-69
2024/04/04 03:05:20;;;;;;;;;;;;;;;;;;4450371;32;19947;-68
2024/04/04 03:07:45;;;;;;;;;;;;;;;;;;4452895;32;19947;-67
2024/04/04 03:10:11;;;;;;;;;;;;;;;;;;4454462;32;19963;-69
2024/04/04 03:12:36;;;;;;;;;;;;;;;;;;4457074;32;19932;-70
2024/04/04 03:15:02;;;;;;;;;;;;;;;;;;4455102;32;20005;-69
2024/04/04 03:17:27;;;;;;;;;;;;;;;;;;4454961;32;19947;-69
2024/04/04 03:19:52;;;;;;;;;;;;;;;;;;4457080;32;20322;-68
2024/04/04 03:22:17;;;;;;;;;;;;;;;;;;4456063;32;20253;-69
2024/04/04 03:24:42;;;;;;;;;;;;;;;;;;4445907;32;19964;-67
2024/04/04 03:27:07;;;;;;;;;;;;;;;;;;4441357;32;20358;-68
2024/04/04 03:29:32;;;;;;;;;;;;;;;;;;4448390;32;19975;-68
2024/04/04 03:31:57;;;;;;;;;;;;;;;;;;4450691;32;19973;-69
2024/04/04 03:34:23;;;;;;;;;;;;;;;;;;4439859;32;19972;-69
2024/04/04 03:36:48;;;;;;;;;;;;;;;;;;4440609;32;19937;-69
2024/04/04 03:39:13;;;;;;;;;;;;;;;;;;4448888;32;20265;-69
2024/04/04 03:41:38;;;;;;;;;;;;;;;;;;4446022;32;19932;-70
2024/04/04 03:44:05;;;;;;;;;;;;;;;;;;4441158;32;19973;-71
2024/04/04 03:46:30;;;;;;;;;;;;;;;;;;4440831;32;19951;-71
2024/04/04 03:48:55;;;;;;;;;;;;;;;;;;4440098;32;19940;-72
2024/04/04 03:51:21;;;;;;;;;;;;;;;;;;4448017;32;19997;-72
2024/04/04 03:53:46;;;;;;;;;;;;;;;;;;4456027;32;19951;-73
2024/04/04 03:56:11;;;;;;;;;;;;;;;;;;4456037;32;19944;-73
2024/04/04 03:58:36;;;;;;;;;;;;;;;;;;4455917;32;20357;-74
2024/04/04 04:01:02;;;;;;;;;;;;;;;;;;4456690;32;20347;-75
2024/04/04 04:03:27;;;;;;;;;;;;;;;;;;4455094;32;19986;-74
2024/04/04 04:05:52;;;;;;;;;;;;;;;;;;4456637;32;19932;-75
2024/04/04 04:08:17;;;;;;;;;;;;;;;;;;4456878;32;19951;-76
2024/04/04 04:10:42;;;;;;;;;;;;;;;;;;4457176;32;19949;-78
2024/04/04 04:13:08;;;;;;;;;;;;;;;;;;4456797;32;19947;-78
2024/04/04 04:15:33;;;;;;;;;;;;;;;;;;4454867;32;19966;-77
2024/04/04 04:17:58;;;;;;;;;;;;;;;;;;4454428;32;19936;-78
2024/04/04 04:23:24;;;;;;;;;;;;;;;;;;4405973;32;19930;-75
2024/04/04 04:25:49;;;;;;;;;;;;;;;;;;4442711;32;19928;-77
2024/04/04 04:28:14;;;;;;;;;;;;;;;;;;4453964;32;20005;-78
2024/04/04 04:30:39;;;;;;;;;;;;;;;;;;4455637;32;19950;-78
2024/04/04 04:33:04;;;;;;;;;;;;;;;;;;4454433;32;19951;-76
2024/04/04 04:35:29;;;;;;;;;;;;;;;;;;4454488;32;19936;-77
2024/04/04 04:37:54;;;;;;;;;;;;;;;;;;4454620;32;20100;-77
2024/04/04 04:40:20;;;;;;;;;;;;;;;;;;4453230;32;20023;-76
2024/04/04 04:42:45;;;;;;;;;;;;;;;;;;4454130;32;19932;-77
2024/04/04 04:45:10;;;;;;;;;;;;;;;;;;4453121;32;19950;-76
2024/04/04 04:47:35;;;;;;;;;;;;;;;;;;4452236;32;20357;-74
2024/04/04 04:50:00;;;;;;;;;;;;;;;;;;4453844;32;20039;-76
2024/04/04 04:52:25;;;;;;;;;;;;;;;;;;4451802;32;20354;-76
2024/04/04 04:54:51;;;;;;;;;;;;;;;;;;4454438;32;19944;-74
2024/04/04 04:57:16;;;;;;;;;;;;;;;;;;4451324;32;19944;-75
2024/04/04 04:59:41;;;;;;;;;;;;;;;;;;4451129;32;20276;-76
2024/04/04 05:02:06;;;;;;;;;;;;;;;;;;4452296;32;19936;-76
2024/04/04 05:04:31;;;;;;;;;;;;;;;;;;4452825;32;20003;-78
2024/04/04 05:06:56;;;;;;;;;;;;;;;;;;4452266;32;19933;-78
2024/04/04 05:09:21;;;;;;;;;;;;;;;;;;4454287;32;19981;-81
2024/04/04 05:11:47;;;;;;;;;;;;;;;;;;4451283;32;19982;-79
2024/04/04 05:14:12;;;;;;;;;;;;;;;;;;4453256;32;20124;-80
2024/04/04 05:16:37;;;;;;;;;;;;;;;;;;4452009;32;20264;-80
2024/04/04 05:19:02;;;;;;;;;;;;;;;;;;4452367;32;19986;-82
2024/04/04 05:21:27;;;;;;;;;;;;;;;;;;4454876;32;20000;-81
2024/04/04 05:23:53;;;;;;;;;;;;;;;;;;4454815;32;19979;-83
2024/04/04 05:26:18;;;;;;;;;;;;;;;;;;4453661;32;19936;-82
2024/04/04 05:28:45;;;;;;;;;;;;;;;;;;4452600;32;20290;-80
2024/04/04 05:31:10;;;;;;;;;;;;;;;;;;4452677;32;20301;-80
2024/04/04 05:33:35;;;;;;;;;;;;;;;;;;4452250;32;20349;-84
2024/04/04 05:36:00;;;;;;;;;;;;;;;;;;4452668;32;19937;-82
2024/04/04 05:38:25;;;;;;;;;;;;;;;;;;4453295;32;19943;-84
2024/04/04 05:40:50;;;;;;;;;;;;;;;;;;4451475;32;19974;-83
2024/04/04 05:43:15;;;;;;;;;;;;;;;;;;4451159;32;19941;-81
2024/04/04 05:45:40;;;;;;;;;;;;;;;;;;4451668;32;19936;-82
2024/04/04 05:48:06;;;;;;;;;;;;;;;;;;4453055;32;19947;-80
2024/04/04 05:50:31;;;;;;;;;;;;;;;;;;4452359;32;19937;-79
2024/04/04 05:52:56;;;;;;;;;;;;;;;;;;4454627;32;19932;-82
2024/04/04 05:55:21;;;;;;;;;;;;;;;;;;4451903;32;19936;-82
2024/04/04 05:57:48;;;;;;;;;;;;;;;;;;4452164;32;19940;-83
2024/04/04 06:00:14;;;;;;;;;;;;;;;;;;4451509;32;19929;-79
2024/04/04 06:02:39;;;;;;;;;;;;;;;;;;4453228;32;19944;-83
2024/04/04 06:05:04;;;;;;;;;;;;;;;;;;4449504;32;19969;-80
2024/04/04 06:07:29;;;;;;;;;;;;;;;;;;4436253;32;20423;-80
2024/04/04 06:09:54;;;;;;;;;;;;;;;;;;4438348;32;20219;-81
2024/04/04 06:12:19;;;;;;;;;;;;;;;;;;4448441;32;19940;-79
2024/04/04 06:14:44;;;;;;;;;;;;;;;;;;4452182;32;19969;-81
2024/04/04 06:17:09;;;;;;;;;;;;;;;;;;4452365;32;20280;-82
2024/04/04 06:19:35;;;;;;;;;;;;;;;;;;4451243;32;20241;-81
2024/04/04 06:22:00;;;;;;;;;;;;;;;;;;4451268;32;19947;-81
2024/04/04 06:24:25;;;;;;;;;;;;;;;;;;4451372;32;19940;-80
2024/04/04 06:26:50;;;;;;;;;;;;;;;;;;4450858;32;19940;-77
2024/04/04 06:29:15;;;;;;;;;;;;;;;;;;4450441;32;19936;-77
2024/04/04 06:31:40;;;;;;;;;;;;;;;;;;4453941;32;19944;-77
2024/04/04 06:34:05;;;;;;;;;;;;;;;;;;4455347;32;19948;-77
2024/04/04 06:36:31;;;;;;;;;;;;;;;;;;4452444;32;19951;-77
2024/04/04 06:38:59;;;;;;;;;;;;;;;;;;4453195;32;19940;-76
2024/04/04 06:41:24;;;;;;;;;;;;;;;;;;4454581;32;19962;-78
2024/04/04 06:43:50;;;;;;;;;;;;;;;;;;4450839;32;19936;-76
2024/04/04 06:46:15;;;;;;;;;;;;;;;;;;4451831;32;19932;-77
2024/04/04 06:48:41;;;;;;;;;;;;;;;;;;4450974;32;19944;-78
2024/04/04 06:51:06;;;;;;;;;;;;;;;;;;4450632;32;19943;-78
2024/04/04 06:53:31;;;;;;;;;;;;;;;;;;4450488;32;19966;-81
2024/04/04 06:55:56;;;;;;;;;;;;;;;;;;4451544;32;20293;-80
2024/04/04 06:58:21;;;;;;;;;;;;;;;;;;4449949;32;20395;-84
2024/04/04 07:00:47;;;;;;;;;;;;;;;;;;4451990;32;19960;-80
2024/04/04 07:03:12;;;;;;;;;;;;;;;;;;4451942;32;20368;-80
2024/04/04 07:05:37;;;;;;;;;;;;;;;;;;4451355;32;19936;-79
2024/04/04 07:08:05;;;;;;;;;;;;;;;;;;4450541;32;19980;-82
2024/04/04 07:10:30;;;;;;;;;;;;;;;;;;4450148;32;19928;-77
2024/04/04 07:12:55;;;;;;;;;;;;;;;;;;4450112;32;19932;-79
2024/04/04 07:15:21;;;;;;;;;;;;;;;;;;4451193;32;19973;-76
2024/04/04 07:17:48;;;;;;;;;;;;;;;;;;4450435;32;19940;-76
2024/04/04 07:20:13;;;;;;;;;;;;;;;;;;4451113;32;19971;-75
2024/04/04 07:22:38;;;;;;;;;;;;;;;;;;4450528;32;19979;-77
2024/04/04 07:25:03;;;;;;;;;;;;;;;;;;4449754;32;19937;-77
2024/04/04 07:27:28;;;;;;;;;;;;;;;;;;4451558;32;19932;-76
2024/04/04 07:29:53;;;;;;;;;;;;;;;;;;4451470;32;19951;-77
2024/04/04 07:32:19;;;;;;;;;;;;;;;;;;4449848;32;19955;-77
2024/04/04 07:34:44;;;;;;;;;;;;;;;;;;4451994;32;19952;-77
2024/04/04 07:37:10;;;;;;;;;;;;;;;;;;4451849;32;19932;-74
2024/04/04 07:39:35;;;;;;;;;;;;;;;;;;4449756;32;20309;-77
2024/04/04 07:42:00;;;;;;;;;;;;;;;;;;4445710;32;19992;-76
2024/04/04 07:44:26;;;;;;;;;;;;;;;;;;4451883;32;19936;-76
2024/04/04 07:46:51;;;;;;;;;;;;;;;;;;4451090;32;19933;-78
2024/04/04 07:49:17;;;;;;;;;;;;;;;;;;4451632;32;19936;-74
2024/04/04 07:51:42;;;;;;;;;;;;;;;;;;4450606;32;19948;-74
2024/04/04 07:54:07;;;;;;;;;;;;;;;;;;4450521;32;19995;-75
2024/04/04 07:56:32;;;;;;;;;;;;;;;;;;4454048;32;19986;-74
2024/04/04 07:58:57;;;;;;;;;;;;;;;;;;4453616;32;19932;-72
2024/04/04 08:01:22;;;;;;;;;;;;;;;;;;4441684;32;19995;-75
2024/04/04 08:03:49;;;;;;;;;;;;;;;;;;4439770;32;20078;-75
2024/04/04 08:06:14;;;;;;;;;;;;;;;;;;4447807;32;19940;-75
2024/04/04 08:08:39;;;;;;;;;;;;;;;;;;4455548;32;19929;-75
2024/04/04 08:11:06;;;;;;;;;;;;;;;;;;4455261;32;19993;-74
2024/04/04 08:13:31;;;;;;;;;;;;;;;;;;4443592;32;19929;-75
2024/04/04 08:15:56;;;;;;;;;;;;;;;;;;4455752;32;19950;-74
2024/04/04 08:18:22;;;;;;;;;;;;;;;;;;4448143;32;19949;-78
2024/04/04 08:20:47;;;;;;;;;;;;;;;;;;4438936;32;19964;-77
2024/04/04 08:23:12;;;;;;;;;;;;;;;;;;4437747;32;19988;-78
2024/04/04 08:25:37;;;;;;;;;;;;;;;;;;4438175;32;20333;-77
2024/04/04 08:28:04;;;;;;;;;;;;;;;;;;4438727;32;20400;-77
2024/04/04 08:30:29;;;;;;;;;;;;;;;;;;4440412;32;19989;-77
2024/04/04 08:32:54;;;;;;;;;;;;;;;;;;4438480;32;20317;-79
2024/04/04 08:35:19;;;;;;;;;;;;;;;;;;4438278;32;20008;-75
2024/04/04 08:37:45;;;;;;;;;;;;;;;;;;4437271;32;19940;-76
2024/04/04 08:40:11;;;;;;;;;;;;;;;;;;4438835;32;19966;-76
2024/04/04 08:42:36;;;;;;;;;;;;;;;;;;4438769;32;19936;-76
2024/04/04 08:45:01;;;;;;;;;;;;;;;;;;4439525;32;19963;-74
2024/04/04 08:47:26;;;;;;;;;;;;;;;;;;4440927;32;19937;-75
2024/04/04 08:49:52;;;;;;;;;;;;;;;;;;4439863;32;19980;-75
2024/04/04 08:52:18;;;;;;;;;;;;;;;;;;4449096;32;19955;-74
2024/04/04 08:54:43;;;;;;;;;;;;;;;;;;4452418;32;19971;-74
2024/04/04 08:57:08;;;;;;;;;;;;;;;;;;4445597;32;19973;-75
2024/04/04 08:59:33;;;;;;;;;;;;;;;;;;4439326;32;20140;-74
2024/04/04 09:01:58;;;;;;;;;;;;;;;;;;4436399;32;19932;-75
2024/04/04 09:04:24;;;;;;;;;;;;;;;;;;4436137;32;19955;-73
2024/04/04 09:06:49;;;;;;;;;;;;;;;;;;4436958;32;19955;-74
2024/04/04 09:09:14;;;;;;;;;;;;;;;;;;4436756;32;19932;-73
2024/04/04 09:11:39;;;;;;;;;;;;;;;;;;4441953;32;20018;-74
2024/04/04 09:14:04;;;;;;;;;;;;;;;;;;4436871;32;19941;-74
2024/04/04 09:16:29;;;;;;;;;;;;;;;;;;4445228;32;20043;-73
2024/04/04 09:18:54;;;;;;;;;;;;;;;;;;4446237;32;19980;-73
2024/04/04 09:21:19;;;;;;;;;;;;;;;;;;4452590;32;20018;-72
2024/04/04 09:23:45;;;;;;;;;;;;;;;;;;4452146;32;19941;-72
2024/04/04 09:26:10;;;;;;;;;;;;;;;;;;4438639;32;19989;-72
2024/04/04 09:28:35;;;;;;;;;;;;;;;;;;4451827;32;19945;-73
2024/04/04 09:31:00;;;;;;;;;;;;;;;;;;4450627;32;19933;-72
2024/04/04 09:33:25;;;;;;;;;;;;;;;;;;4447722;32;20317;-73
2024/04/04 09:35:52;;;;;;;;;;;;;;;;;;4452531;32;19929;-71
2024/04/04 09:38:17;;;;;;;;;;;;;;;;;;4436848;32;19937;-73
2024/04/04 09:40:44;;;;;;;;;;;;;;;;;;4436378;32;19943;-74
2024/04/04 09:43:09;;;;;;;;;;;;;;;;;;4447256;32;19929;-72
2024/04/04 09:45:34;;;;;;;;;;;;;;;;;;4443570;32;19950;-73
2024/04/04 09:48:00;;;;;;;;;;;;;;;;;;4437753;32;19950;-72
2024/04/04 09:50:25;;;;;;;;;;;;;;;;;;4439399;32;19955;-72
2024/04/04 09:52:50;;;;;;;;;;;;;;;;;;4450392;32;20317;-71
2024/04/04 09:55:15;;;;;;;;;;;;;;;;;;4452076;32;19951;-71
2024/04/04 09:57:40;;;;;;;;;;;;;;;;;;4451977;32;19950;-72
2024/04/04 10:00:15;;;;;;;;;;;;;;;;;;4452339;32;20030;-71
2024/04/04 10:02:40;;;;;;;;;;;;;;;;;;4443409;32;19956;-74
2024/04/04 10:05:05;;;;;;;;;;;;;;;;;;4435287;32;20234;-73
2024/04/04 10:07:30;;;;;;;;;;;;;;;;;;4441264;32;19936;-72
2024/04/04 10:09:55;;;;;;;;;;;;;;;;;;4441184;32;19967;-73
2024/04/04 10:12:20;;;;;;;;;;;;;;;;;;4435454;32;20312;-71
2024/04/04 10:14:45;;;;;;;;;;;;;;;;;;4449025;32;20009;-72
2024/04/04 10:17:11;;;;;;;;;;;;;;;;;;4448857;32;19946;-73
2024/04/04 10:19:36;;;;;;;;;;;;;;;;;;4446808;32;19936;-72
2024/04/04 10:22:06;;;;;;;;;;;;;;;;;;4435154;32;19975;-74
2024/04/04 10:24:31;;;;;;;;;;;;;;;;;;4444379;32;19932;-75
2024/04/04 10:26:57;;;;;;;;;;;;;;;;;;4451562;32;19968;-76
2024/04/04 10:29:22;;;;;;;;;;;;;;;;;;4445906;32;20117;-80
2024/04/04 10:31:47;;;;;;;;;;;;;;;;;;4439709;32;19943;-78
2024/04/04 10:34:13;;;;;;;;;;;;;;;;;;4447258;32;19936;-74
2024/04/04 10:36:38;;;;;;;;;;;;;;;;;;4450279;32;20282;-71
2024/04/04 10:39:03;;;;;;;;;;;;;;;;;;4433178;32;19948;-68
2024/04/04 10:41:28;;;;;;;;;;;;;;;;;;4441317;32;20306;-67
2024/04/04 10:43:53;;;;;;;;;;;;;;;;;;4441973;32;20051;-66
2024/04/04 10:46:18;;;;;;;;;;;;;;;;;;4446044;32;19937;-66
2024/04/04 10:48:43;;;;;;;;;;;;;;;;;;4449570;32;19942;-64
2024/04/04 10:51:10;;;;;;;;;;;;;;;;;;4450798;32;20309;-64
2024/04/04 10:53:35;;;;;;;;;;;;;;;;;;4450128;32;19936;-65
2024/04/04 10:56:00;;;;;;;;;;;;;;;;;;4451332;32;19947;-66
2024/04/04 10:58:25;;;;;;;;;;;;;;;;;;4451242;32;19973;-66
2024/04/04 11:00:50;;;;;;;;;;;;;;;;;;4437404;32;19937;-66
2024/04/04 11:03:15;;;;;;;;;;;;;;;;;;4451976;32;19967;-65
2024/04/04 11:05:40;;;;;;;;;;;;;;;;;;4442060;32;19936;-66
2024/04/04 11:08:05;;;;;;;;;;;;;;;;;;4432891;32;20300;-66
2024/04/04 11:10:30;;;;;;;;;;;;;;;;;;4431912;32;20025;-66
2024/04/04 11:12:57;;;;;;;;;;;;;;;;;;4441667;32;19952;-66
2024/04/04 11:15:22;;;;;;;;;;;;;;;;;;4449251;32;20341;-65
2024/04/04 11:17:47;;;;;;;;;;;;;;;;;;4446791;32;20151;-66
2024/04/04 11:20:16;;;;;;;;;;;;;;;;;;4449148;32;19986;-66
2024/04/04 11:22:41;;;;;;;;;;;;;;;;;;4449129;32;19948;-65
2024/04/04 11:25:06;;;;;;;;;;;;;;;;;;4434957;32;19941;-66
2024/04/04 11:27:31;;;;;;;;;;;;;;;;;;4446628;32;19936;-65
2024/04/04 11:29:56;;;;;;;;;;;;;;;;;;4452004;32;19932;-66
2024/04/04 11:32:21;;;;;;;;;;;;;;;;;;4447232;32;19936;-67
2024/04/04 11:34:46;;;;;;;;;;;;;;;;;;4436359;32;19949;-67
2024/04/04 11:37:11;;;;;;;;;;;;;;;;;;4437358;32;20370;-67
2024/04/04 11:39:36;;;;;;;;;;;;;;;;;;4441468;32;19965;-66
2024/04/04 11:42:01;;;;;;;;;;;;;;;;;;4452807;32;20203;-65
2024/04/04 11:44:27;;;;;;;;;;;;;;;;;;4437444;32;20277;-65
2024/04/04 11:46:52;;;;;;;;;;;;;;;;;;4437769;32;19980;-67
2024/04/04 11:49:18;;;;;;;;;;;;;;;;;;4439229;32;20024;-66
2024/04/04 11:51:43;;;;;;;;;;;;;;;;;;4437791;32;19949;-66
2024/04/04 11:54:09;;;;;;;;;;;;;;;;;;4436487;32;19936;-66
2024/04/04 11:56:34;;;;;;;;;;;;;;;;;;4435880;32;20011;-66
2024/04/04 11:58:59;;;;;;;;;;;;;;;;;;4448976;32;20276;-67
2024/04/04 12:01:24;;;;;;;;;;;;;;;;;;4437198;32;19937;-66
2024/04/04 12:03:49;;;;;;;;;;;;;;;;;;4436866;32;19937;-67
2024/04/04 12:06:14;;;;;;;;;;;;;;;;;;4440229;32;19990;-66
2024/04/04 12:08:39;;;;;;;;;;;;;;;;;;4436547;32;19953;-66
2024/04/04 12:11:08;;;;;;;;;;;;;;;;;;4437156;32;20331;-67
2024/04/04 12:13:33;;;;;;;;;;;;;;;;;;4445262;32;20019;-66
2024/04/04 12:15:59;;;;;;;;;;;;;;;;;;4442913;32;19974;-66
2024/04/04 12:21:14;;;;;;;;;;;;;;;;;;4438994;32;20006;-68
2024/04/04 12:23:39;;;;;;;;;;;;;;;;;;4451658;32;19950;-67
2024/04/04 12:26:04;;;;;;;;;;;;;;;;;;4453037;32;19937;-67
2024/04/04 12:28:29;;;;;;;;;;;;;;;;;;4442491;32;19933;-67
2024/04/04 12:30:54;;;;;;;;;;;;;;;;;;4435069;32;19973;-67
2024/04/04 12:33:19;;;;;;;;;;;;;;;;;;4446910;32;19933;-66
2024/04/04 12:35:45;;;;;;;;;;;;;;;;;;4450300;32;19936;-66
2024/04/04 12:38:10;;;;;;;;;;;;;;;;;;4451060;32;19959;-67
2024/04/04 12:40:35;;;;;;;;;;;;;;;;;;4450568;32;19960;-68
2024/04/04 12:43:00;;;;;;;;;;;;;;;;;;4452634;32;20246;-67
2024/04/04 12:45:25;;;;;;;;;;;;;;;;;;4452482;32;19947;-67
2024/04/04 12:47:50;;;;;;;;;;;;;;;;;;4450720;32;19963;-67
2024/04/04 12:50:15;;;;;;;;;;;;;;;;;;4452530;32;19952;-66
2024/04/04 12:52:40;;;;;;;;;;;;;;;;;;4451924;32;19944;-68
2024/04/04 12:55:05;;;;;;;;;;;;;;;;;;4450322;32;19950;-66
2024/04/04 12:57:31;;;;;;;;;;;;;;;;;;4437394;32;20037;-68
2024/04/04 12:59:56;;;;;;;;;;;;;;;;;;4452517;32;19936;-66
2024/04/04 13:02:21;;;;;;;;;;;;;;;;;;4446547;32;19979;-68
2024/04/04 13:04:46;;;;;;;;;;;;;;;;;;4436628;32;20300;-67
2024/04/04 13:07:11;;;;;;;;;;;;;;;;;;4437159;32;20306;-67
2024/04/04 13:09:37;;;;;;;;;;;;;;;;;;4437667;32;19944;-67
2024/04/04 13:12:03;;;;;;;;;;;;;;;;;;4438382;32;19936;-67
2024/04/04 13:14:28;;;;;;;;;;;;;;;;;;4434588;32;19973;-67
2024/04/04 13:16:54;;;;;;;;;;;;;;;;;;4436900;32;19965;-68
2024/04/04 13:19:19;;;;;;;;;;;;;;;;;;4436490;32;19941;-68
2024/04/04 13:21:44;;;;;;;;;;;;;;;;;;4447127;32;20300;-66
2024/04/04 13:24:09;;;;;;;;;;;;;;;;;;4444190;32;19933;-67
2024/04/04 13:26:34;;;;;;;;;;;;;;;;;;4435920;32;19937;-68
2024/04/04 13:28:59;;;;;;;;;;;;;;;;;;4446852;32;19985;-66
2024/04/04 13:31:24;;;;;;;;;;;;;;;;;;4450347;32;19980;-66
2024/04/04 13:33:49;;;;;;;;;;;;;;;;;;4439266;32;20265;-67
2024/04/04 13:36:15;;;;;;;;;;;;;;;;;;4443547;32;20088;-66
2024/04/04 13:38:40;;;;;;;;;;;;;;;;;;4451095;32;19960;-67
2024/04/04 13:41:07;;;;;;;;;;;;;;;;;;4451772;32;19978;-67
2024/04/04 13:43:32;;;;;;;;;;;;;;;;;;4451324;32;19937;-66
2024/04/04 13:45:57;;;;;;;;;;;;;;;;;;4448048;32;19946;-66
2024/04/04 13:48:23;;;;;;;;;;;;;;;;;;4453046;32;19985;-67
2024/04/04 13:50:48;;;;;;;;;;;;;;;;;;4451793;32;19941;-66
2024/04/04 13:53:13;;;;;;;;;;;;;;;;;;4451564;32;19964;-66
2024/04/04 13:55:38;;;;;;;;;;;;;;;;;;4450219;32;19936;-65
2024/04/04 13:58:04;;;;;;;;;;;;;;;;;;4449106;32;20027;-66
2024/04/04 14:00:29;;;;;;;;;;;;;;;;;;4437612;32;19948;-67
2024/04/04 14:02:54;;;;;;;;;;;;;;;;;;4445097;32;19984;-67
2024/04/04 14:05:19;;;;;;;;;;;;;;;;;;4442701;32;19950;-67
2024/04/04 14:07:44;;;;;;;;;;;;;;;;;;4451529;32;19987;-66
2024/04/04 14:10:10;;;;;;;;;;;;;;;;;;4451891;32;19986;-67
2024/04/04 14:12:35;;;;;;;;;;;;;;;;;;4449241;32;19933;-67
2024/04/04 14:15:00;;;;;;;;;;;;;;;;;;4446058;32;19940;-66
2024/04/04 14:17:25;;;;;;;;;;;;;;;;;;4446421;32;19971;-67
2024/04/04 14:19:50;;;;;;;;;;;;;;;;;;4433782;32;20313;-66
2024/04/04 14:22:17;;;;;;;;;;;;;;;;;;4436407;32;19940;-65
2024/04/04 14:24:42;;;;;;;;;;;;;;;;;;4435818;32;19945;-67
2024/04/04 14:27:07;;;;;;;;;;;;;;;;;;4451978;32;20357;-66
2024/04/04 14:29:35;;;;;;;;;;;;;;;;;;4449644;32;19985;-66
2024/04/04 14:32:01;;;;;;;;;;;;;;;;;;4433763;32;20322;-67
2024/04/04 14:34:27;;;;;;;;;;;;;;;;;;4451238;32;19936;-66
2024/04/04 14:36:52;;;;;;;;;;;;;;;;;;4451195;32;20237;-68
2024/04/04 14:39:17;;;;;;;;;;;;;;;;;;4437302;32;19933;-68
2024/04/04 14:41:42;;;;;;;;;;;;;;;;;;4436532;32;19936;-67
2024/04/04 14:44:09;;;;;;;;;;;;;;;;;;4436254;32;19951;-67
2024/04/04 14:46:35;;;;;;;;;;;;;;;;;;4434924;32;19937;-66
2024/04/04 14:49:02;;;;;;;;;;;;;;;;;;4435334;32;19974;-66
2024/04/04 14:51:27;;;;;;;;;;;;;;;;;;4450718;32;19933;-69
2024/04/04 14:53:52;;;;;;;;;;;;;;;;;;4451159;32;19936;-68
2024/04/04 14:56:17;;;;;;;;;;;;;;;;;;4449578;32;19937;-67
2024/04/04 14:58:43;;;;;;;;;;;;;;;;;;4449893;32;19932;-67
2024/04/04 15:01:08;;;;;;;;;;;;;;;;;;4444531;32;19948;-66
2024/04/04 15:03:33;;;;;;;;;;;;;;;;;;4445845;32;20292;-67
2024/04/04 15:05:58;;;;;;;;;;;;;;;;;;4445799;32;19937;-67
2024/04/04 15:08:23;;;;;;;;;;;;;;;;;;4442244;32;19992;-68
2024/04/04 15:10:48;;;;;;;;;;;;;;;;;;4451188;32;19944;-67
2024/04/04 15:13:14;;;;;;;;;;;;;;;;;;4443647;32;20018;-67
2024/04/04 15:15:39;;;;;;;;;;;;;;;;;;4439040;32;19932;-67
2024/04/04 15:18:04;;;;;;;;;;;;;;;;;;4435454;32;19965;-67
2024/04/04 15:20:29;;;;;;;;;;;;;;;;;;4436013;32;19968;-66
2024/04/04 15:22:54;;;;;;;;;;;;;;;;;;4445747;32;19955;-67
2024/04/04 15:25:19;;;;;;;;;;;;;;;;;;4449817;32;19941;-68
2024/04/04 15:27:44;;;;;;;;;;;;;;;;;;4442741;32;19936;-68
2024/04/04 15:30:09;;;;;;;;;;;;;;;;;;4449261;32;19955;-67
2024/04/04 15:32:35;;;;;;;;;;;;;;;;;;4451517;32;19933;-66
2024/04/04 15:35:00;;;;;;;;;;;;;;;;;;4450122;32;19974;-66
2024/04/04 15:37:25;;;;;;;;;;;;;;;;;;4447052;32;19936;-67
2024/04/04 15:39:52;;;;;;;;;;;;;;;;;;4436803;32;20378;-68
2024/04/04 15:42:17;;;;;;;;;;;;;;;;;;4432964;32;20144;-67
2024/04/04 15:44:42;;;;;;;;;;;;;;;;;;4435710;32;19945;-66
2024/04/04 15:47:07;;;;;;;;;;;;;;;;;;4435933;32;19943;-66
2024/04/04 15:49:32;;;;;;;;;;;;;;;;;;4433960;32;19937;-66
2024/04/04 15:51:58;;;;;;;;;;;;;;;;;;4434577;32;20327;-65
2024/04/04 15:54:23;;;;;;;;;;;;;;;;;;4433924;32;20231;-66
2024/04/04 15:56:48;;;;;;;;;;;;;;;;;;4434421;32;19933;-67
2024/04/04 15:59:13;;;;;;;;;;;;;;;;;;4434996;32;19989;-67
2024/04/04 16:01:38;;;;;;;;;;;;;;;;;;4446144;32;20003;-66
2024/04/04 16:04:04;;;;;;;;;;;;;;;;;;4446102;32;20401;-66
2024/04/04 16:06:30;;;;;;;;;;;;;;;;;;4441488;32;20245;-68
2024/04/04 16:08:55;;;;;;;;;;;;;;;;;;4448797;32;19940;-68
2024/04/04 16:11:20;;;;;;;;;;;;;;;;;;4442751;32;19936;-67
2024/04/04 16:13:45;;;;;;;;;;;;;;;;;;4448268;32;19932;-67
2024/04/04 16:16:10;;;;;;;;;;;;;;;;;;4449093;32;19959;-68
2024/04/04 16:18:36;;;;;;;;;;;;;;;;;;4449402;32;19944;-67
2024/04/04 16:21:02;;;;;;;;;;;;;;;;;;4453354;32;20366;-69
2024/04/04 16:23:27;;;;;;;;;;;;;;;;;;4443943;32;19933;-66
2024/04/04 16:25:52;;;;;;;;;;;;;;;;;;4438747;32;20009;-68
2024/04/04 16:28:17;;;;;;;;;;;;;;;;;;4446306;32;19936;-68
2024/04/04 16:30:42;;;;;;;;;;;;;;;;;;4445040;32;19937;-67
2024/04/04 16:33:08;;;;;;;;;;;;;;;;;;4442546;32;19937;-67
2024/04/04 16:35:33;;;;;;;;;;;;;;;;;;4450917;32;19973;-69
2024/04/04 16:37:58;;;;;;;;;;;;;;;;;;4440383;32;20020;-66